Time,TemperatureF,DewpointF,PressureIn,WindDirection,WindDirectionDegrees,WindSpeedMPH,WindSpeedGustMPH,Humidity,HourlyPrecipIn,Conditions,Clouds,dailyrainin,SoftwareType,DateUTC
2013-01-07 00:00:00,26.8,19.5,29.88,North,0,0.0,0.0,74,0.00,,,0.00,WUHU21623XXSP,2013-01-07 06:00:00,
2013-01-07 00:05:00,26.8,19.5,29.88,North,0,0.0,0.0,74,0.00,,,0.00,WUHU21623XXSP,2013-01-07 06:05:00,
2013-01-07 00:10:00,26.6,19.4,29.88,North,0,0.0,0.0,74,0.00,,,0.00,WUHU21623XXSP,2013-01-07 06:10:00,
2013-01-07 00:15:00,26.4,19.2,29.88,North,0,0.0,0.0,74,0.00,,,0.00,WUHU21623XXSP,2013-01-07 06:15:00,
2013-01-07 00:20:00,26.4,19.2,29.88,North,0,0.0,0.0,74,0.00,,,0.00,WUHU21623XXSP,2013-01-07 06:20:00,
2013-01-07 00:25:00,26.4,19.2,29.88,North,0,0.0,0.0,74,0.00,,,0.00,WUHU21623XXSP,2013-01-07 06:25:00,
2013-01-07 00:30:00,26.2,19.0,29.88,North,0,0.0,0.0,74,0.00,,,0.00,WUHU21623XXSP,2013-01-07 06:30:00,
2013-01-07 00:35:00,26.2,19.0,29.88,North,0,0.0,0.0,74,0.00,,,0.00,WUHU21623XXSP,2013-01-07 06:35:00,
2013-01-07 00:40:00,25.9,18.7,29.88,North,0,0.0,0.0,74,0.00,,,0.00,WUHU21623XXSP,2013-01-07 06:40:00,
2013-01-07 00:45:00,25.9,18.7,29.89,North,0,0.0,0.0,74,0.00,,,0.00,WUHU21623XXSP,2013-01-07 06:45:00,
2013-01-07 00:50:00,25.7,18.5,29.89,North,0,0.0,0.0,74,0.00,,,0.00,WUHU21623XXSP,2013-01-07 06:50:00,
2013-01-07 00:55:00,25.5,18.3,29.89,North,0,0.0,0.0,74,0.00,,,0.00,WUHU21623XXSP,2013-01-07 06:55:00,
2013-01-07 01:00:00,25.5,18.3,29.89,North,0,0.0,0.0,74,0.00,,,0.00,WUHU21623XXSP,2013-01-07 07:00:00,
2013-01-07 01:05:00,25.5,18.6,29.89,North,0,0.0,0.0,75,0.00,,,0.00,WUHU21623XXSP,2013-01-07 07:05:00,
2013-01-07 01:10:00,25.3,18.5,29.89,North,0,0.0,0.0,75,0.00,,,0.00,WUHU21623XXSP,2013-01-07 07:10:00,
2013-01-07 01:15:00,25.2,18.3,29.90,North,0,0.0,0.0,75,0.00,,,0.00,WUHU21623XXSP,2013-01-07 07:15:00,
2013-01-07 01:20:00,25.0,18.3,29.90,North,0,0.0,0.0,75,0.00,,,0.00,WUHU21623XXSP,2013-01-07 07:20:00,
2013-01-07 01:25:00,25.0,18.1,29.90,North,0,0.0,0.0,75,0.00,,,0.00,WUHU21623XXSP,2013-01-07 07:25:00,
2013-01-07 01:30:00,25.0,18.1,29.90,North,0,0.0,0.0,75,0.00,,,0.00,WUHU21623XXSP,2013-01-07 07:30:00,
2013-01-07 01:35:00,24.6,17.8,29.90,North,0,0.0,0.0,75,0.00,,,0.00,WUHU21623XXSP,2013-01-07 07:35:00,
2013-01-07 01:40:00,24.6,18.1,29.89,North,0,0.0,0.0,76,0.00,,,0.00,WUHU21623XXSP,2013-01-07 07:40:00,
2013-01-07 01:45:00,24.4,17.9,29.89,North,0,0.0,0.0,76,0.00,,,0.00,WUHU21623XXSP,2013-01-07 07:45:00,
2013-01-07 01:51:00,24.4,17.9,29.89,North,0,0.0,0.0,76,0.00,,,0.00,WUHU21623XXSP,2013-01-07 07:51:00,
2013-01-07 01:55:00,24.3,17.8,29.90,North,0,0.0,0.0,76,0.00,,,0.00,WUHU21623XXSP,2013-01-07 07:55:00,
2013-01-07 02:01:00,24.1,17.6,29.89,North,0,0.0,0.0,76,0.00,,,0.00,WUHU21623XXSP,2013-01-07 08:01:00,
2013-01-07 02:06:00,23.9,17.4,29.90,North,0,0.0,0.0,76,0.00,,,0.00,WUHU21623XXSP,2013-01-07 08:06:00,
2013-01-07 02:11:00,23.9,17.4,29.90,North,0,0.0,0.0,76,0.00,,,0.00,WUHU21623XXSP,2013-01-07 08:11:00,
2013-01-07 02:16:00,23.7,17.2,29.90,North,0,0.0,0.0,76,0.00,,,0.00,WUHU21623XXSP,2013-01-07 08:16:00,
2013-01-07 02:21:00,23.7,17.2,29.90,North,0,0.0,0.0,76,0.00,,,0.00,WUHU21623XXSP,2013-01-07 08:21:00,
2013-01-07 02:26:00,23.5,17.2,29.90,North,0,0.0,0.0,76,0.00,,,0.00,WUHU21623XXSP,2013-01-07 08:26:00,
2013-01-07 02:31:00,23.5,17.1,29.90,North,0,0.0,0.0,76,0.00,,,0.00,WUHU21623XXSP,2013-01-07 08:31:00,
2013-01-07 02:36:00,23.4,17.2,29.91,North,0,0.0,0.0,77,0.00,,,0.00,WUHU21623XXSP,2013-01-07 08:36:00,
2013-01-07 02:41:00,23.2,17.0,29.90,North,0,0.0,0.0,77,0.00,,,0.00,WUHU21623XXSP,2013-01-07 08:41:00,
2013-01-07 02:46:00,23.2,17.0,29.91,North,0,0.0,0.0,77,0.00,,,0.00,WUHU21623XXSP,2013-01-07 08:46:00,
2013-01-07 02:51:00,23.2,17.0,29.90,North,0,0.0,0.0,77,0.00,,,0.00,WUHU21623XXSP,2013-01-07 08:51:00,
2013-01-07 02:56:00,23.0,16.9,29.90,North,0,0.0,0.0,77,0.00,,,0.00,WUHU21623XXSP,2013-01-07 08:56:00,
2013-01-07 03:01:00,22.8,16.9,29.90,North,0,0.0,0.0,77,0.00,,,0.00,WUHU21623XXSP,2013-01-07 09:01:00,
2013-01-07 03:06:00,22.8,16.7,29.90,North,0,0.0,0.0,77,0.00,,,0.00,WUHU21623XXSP,2013-01-07 09:06:00,
2013-01-07 03:11:00,22.8,16.7,29.90,North,0,0.0,0.0,77,0.00,,,0.00,WUHU21623XXSP,2013-01-07 09:11:00,
2013-01-07 03:16:00,22.8,16.7,29.91,North,0,0.0,0.0,77,0.00,,,0.00,WUHU21623XXSP,2013-01-07 09:16:00,
2013-01-07 03:21:00,22.8,16.7,29.90,North,0,0.0,0.0,77,0.00,,,0.00,WUHU21623XXSP,2013-01-07 09:21:00,
2013-01-07 03:26:00,22.8,16.7,29.90,North,0,0.0,0.0,77,0.00,,,0.00,WUHU21623XXSP,2013-01-07 09:26:00,
2013-01-07 03:31:00,22.8,16.7,29.90,North,0,0.0,0.0,77,0.00,,,0.00,WUHU21623XXSP,2013-01-07 09:31:00,
2013-01-07 03:36:00,22.6,16.5,29.90,North,0,0.0,0.0,77,0.00,,,0.00,WUHU21623XXSP,2013-01-07 09:36:00,
2013-01-07 03:41:00,22.6,16.5,29.90,North,0,0.0,0.0,77,0.00,,,0.00,WUHU21623XXSP,2013-01-07 09:41:00,
2013-01-07 03:46:00,22.6,16.5,29.90,North,0,0.0,0.0,77,0.00,,,0.00,WUHU21623XXSP,2013-01-07 09:46:00,
2013-01-07 03:51:00,22.6,16.8,29.90,North,0,0.0,0.0,78,0.00,,,0.00,WUHU21623XXSP,2013-01-07 09:51:00,
2013-01-07 03:56:00,22.6,16.8,29.90,North,0,0.0,0.0,78,0.00,,,0.00,WUHU21623XXSP,2013-01-07 09:56:00,
2013-01-07 04:01:00,22.6,16.8,29.90,North,0,0.0,0.0,78,0.00,,,0.00,WUHU21623XXSP,2013-01-07 10:01:00,
2013-01-07 04:06:00,22.6,16.8,29.90,North,0,0.0,0.0,78,0.00,,,0.00,WUHU21623XXSP,2013-01-07 10:06:00,
2013-01-07 04:11:00,22.8,17.0,29.90,North,0,0.0,0.0,78,0.00,,,0.00,WUHU21623XXSP,2013-01-07 10:11:00,
2013-01-07 04:16:00,22.8,17.0,29.89,North,0,0.0,0.0,78,0.00,,,0.00,WUHU21623XXSP,2013-01-07 10:16:00,
2013-01-07 04:21:00,22.8,17.0,29.89,North,0,0.0,0.0,78,0.00,,,0.00,WUHU21623XXSP,2013-01-07 10:21:00,
2013-01-07 04:26:00,22.8,17.0,29.89,North,0,0.0,0.0,78,0.00,,,0.00,WUHU21623XXSP,2013-01-07 10:26:00,
2013-01-07 04:31:00,22.6,16.8,29.89,North,0,0.0,0.0,78,0.00,,,0.00,WUHU21623XXSP,2013-01-07 10:31:00,
2013-01-07 04:36:00,22.6,16.8,29.89,North,0,0.0,0.0,78,0.00,,,0.00,WUHU21623XXSP,2013-01-07 10:36:00,
2013-01-07 04:41:00,22.6,16.8,29.89,North,0,0.0,0.0,78,0.00,,,0.00,WUHU21623XXSP,2013-01-07 10:41:00,
2013-01-07 04:46:00,22.6,16.8,29.89,North,0,0.0,0.0,78,0.00,,,0.00,WUHU21623XXSP,2013-01-07 10:46:00,
2013-01-07 04:51:00,22.8,17.0,29.90,North,0,0.0,0.0,78,0.00,,,0.00,WUHU21623XXSP,2013-01-07 10:51:00,
2013-01-07 04:56:00,22.8,17.0,29.90,North,0,0.0,0.0,78,0.00,,,0.00,WUHU21623XXSP,2013-01-07 10:56:00,
2013-01-07 05:01:00,22.8,17.0,29.90,North,0,0.0,0.0,78,0.00,,,0.00,WUHU21623XXSP,2013-01-07 11:01:00,
2013-01-07 05:06:00,22.8,17.0,29.89,North,0,0.0,0.0,78,0.00,,,0.00,WUHU21623XXSP,2013-01-07 11:06:00,
2013-01-07 05:11:00,22.5,16.6,29.89,North,0,0.0,0.0,78,0.00,,,0.00,WUHU21623XXSP,2013-01-07 11:11:00,
2013-01-07 05:16:00,22.3,16.4,29.89,North,0,0.0,0.0,78,0.00,,,0.00,WUHU21623XXSP,2013-01-07 11:16:00,
2013-01-07 05:21:00,22.3,16.4,29.89,North,0,0.0,0.0,78,0.00,,,0.00,WUHU21623XXSP,2013-01-07 11:21:00,
2013-01-07 05:26:00,22.1,16.3,29.89,North,0,0.0,0.0,78,0.00,,,0.00,WUHU21623XXSP,2013-01-07 11:26:00,
2013-01-07 05:31:00,22.1,16.3,29.89,North,0,0.0,0.0,78,0.00,,,0.00,WUHU21623XXSP,2013-01-07 11:31:00,
2013-01-07 05:36:00,21.9,16.4,29.90,North,0,0.0,0.0,79,0.00,,,0.00,WUHU21623XXSP,2013-01-07 11:36:00,
2013-01-07 05:41:00,21.9,16.4,29.90,North,0,0.0,0.0,79,0.00,,,0.00,WUHU21623XXSP,2013-01-07 11:41:00,
2013-01-07 05:46:00,21.9,16.4,29.90,North,0,0.0,0.0,79,0.00,,,0.00,WUHU21623XXSP,2013-01-07 11:46:00,
2013-01-07 05:51:00,21.9,16.4,29.90,North,0,0.0,0.0,79,0.00,,,0.00,WUHU21623XXSP,2013-01-07 11:51:00,
2013-01-07 05:56:00,21.7,16.2,29.90,North,0,0.0,0.0,79,0.00,,,0.00,WUHU21623XXSP,2013-01-07 11:56:00,
2013-01-07 06:01:00,21.6,16.0,29.90,North,0,0.0,0.0,79,0.00,,,0.00,WUHU21623XXSP,2013-01-07 12:01:00,
2013-01-07 06:06:00,21.6,16.0,29.90,North,0,0.0,0.0,79,0.00,,,0.00,WUHU21623XXSP,2013-01-07 12:06:00,
2013-01-07 06:11:00,21.4,15.9,29.90,North,0,0.0,0.0,79,0.00,,,0.00,WUHU21623XXSP,2013-01-07 12:11:00,
2013-01-07 06:16:00,21.4,15.9,29.91,North,0,0.0,0.0,79,0.00,,,0.00,WUHU21623XXSP,2013-01-07 12:16:00,
2013-01-07 06:21:00,21.0,15.5,29.91,North,0,0.0,0.0,79,0.00,,,0.00,WUHU21623XXSP,2013-01-07 12:21:00,
2013-01-07 06:26:00,21.0,15.5,29.91,North,0,0.0,0.0,79,0.00,,,0.00,WUHU21623XXSP,2013-01-07 12:26:00,
2013-01-07 06:31:00,21.0,15.5,29.92,North,0,0.0,0.0,79,0.00,,,0.00,WUHU21623XXSP,2013-01-07 12:31:00,
2013-01-07 06:36:00,20.8,15.3,29.91,North,0,0.0,0.0,79,0.00,,,0.00,WUHU21623XXSP,2013-01-07 12:36:00,
2013-01-07 06:41:00,20.8,15.3,29.92,North,0,0.0,0.0,79,0.00,,,0.00,WUHU21623XXSP,2013-01-07 12:41:00,
2013-01-07 06:46:00,20.8,15.3,29.91,North,0,0.0,0.0,79,0.00,,,0.00,WUHU21623XXSP,2013-01-07 12:46:00,
2013-01-07 06:51:00,20.8,15.3,29.92,North,0,0.0,0.0,79,0.00,,,0.00,WUHU21623XXSP,2013-01-07 12:51:00,
2013-01-07 06:56:00,20.8,15.3,29.92,North,0,0.0,0.0,79,0.00,,,0.00,WUHU21623XXSP,2013-01-07 12:56:00,
2013-01-07 07:01:00,20.8,15.3,29.92,North,0,0.0,0.0,79,0.00,,,0.00,WUHU21623XXSP,2013-01-07 13:01:00,
2013-01-07 07:06:00,20.8,15.3,29.92,North,0,0.0,0.0,79,0.00,,,0.00,WUHU21623XXSP,2013-01-07 13:06:00,
2013-01-07 07:11:00,20.8,15.3,29.92,North,0,0.0,0.0,79,0.00,,,0.00,WUHU21623XXSP,2013-01-07 13:11:00,
2013-01-07 07:15:00,20.8,15.3,29.92,North,0,0.0,0.0,79,0.00,,,0.00,WUHU21623XXSP,2013-01-07 13:15:00,
2013-01-07 07:20:00,20.8,15.3,29.91,North,0,0.0,0.0,79,0.00,,,0.00,WUHU21623XXSP,2013-01-07 13:20:00,
2013-01-07 07:25:00,20.8,15.3,29.91,North,0,0.0,0.0,79,0.00,,,0.00,WUHU21623XXSP,2013-01-07 13:25:00,
2013-01-07 07:30:00,21.0,15.5,29.91,North,0,0.0,0.0,79,0.00,,,0.00,WUHU21623XXSP,2013-01-07 13:30:00,
2013-01-07 07:35:00,21.4,15.9,29.91,North,0,0.0,0.0,79,0.00,,,0.00,WUHU21623XXSP,2013-01-07 13:35:00,
2013-01-07 07:40:00,21.6,16.0,29.92,North,0,0.0,0.0,79,0.00,,,0.00,WUHU21623XXSP,2013-01-07 13:40:00,
2013-01-07 07:45:00,21.9,16.4,29.92,North,0,0.0,0.0,79,0.00,,,0.00,WUHU21623XXSP,2013-01-07 13:45:00,
2013-01-07 07:50:00,22.5,17.2,29.92,North,0,0.0,0.0,80,0.00,,,0.00,WUHU21623XXSP,2013-01-07 13:50:00,
2013-01-07 07:55:00,23.2,17.6,29.92,North,0,0.0,0.0,80,0.00,,,0.00,WUHU21623XXSP,2013-01-07 13:55:00,
2013-01-07 08:00:00,23.5,18.3,29.92,North,0,0.0,0.0,80,0.00,,,0.00,WUHU21623XXSP,2013-01-07 14:00:00,
2013-01-07 08:05:00,24.4,19.5,29.92,North,0,0.0,0.0,81,0.00,,,0.00,WUHU21623XXSP,2013-01-07 14:05:00,
2013-01-07 08:10:00,25.0,20.0,29.92,North,0,0.0,0.0,81,0.00,,,0.00,WUHU21623XXSP,2013-01-07 14:10:00,
2013-01-07 08:15:00,25.7,20.7,29.92,North,0,0.0,0.0,81,0.00,,,0.00,WUHU21623XXSP,2013-01-07 14:15:00,
2013-01-07 08:20:00,26.4,21.3,29.93,North,0,0.0,0.0,81,0.00,,,0.00,WUHU21623XXSP,2013-01-07 14:20:00,
2013-01-07 08:25:00,27.1,22.0,29.93,North,0,0.0,0.0,81,0.00,,,0.00,WUHU21623XXSP,2013-01-07 14:25:00,
2013-01-07 08:30:00,27.7,22.6,29.93,North,0,0.0,0.0,81,0.00,,,0.00,WUHU21623XXSP,2013-01-07 14:30:00,
2013-01-07 08:35:00,28.6,23.5,29.93,North,0,0.0,0.0,81,0.00,,,0.00,WUHU21623XXSP,2013-01-07 14:35:00,
2013-01-07 08:40:00,28.9,23.8,29.93,North,0,0.0,0.0,81,0.00,,,0.00,WUHU21623XXSP,2013-01-07 14:40:00,
2013-01-07 08:45:00,30.0,24.4,29.93,North,0,0.0,0.0,80,0.00,,,0.00,WUHU21623XXSP,2013-01-07 14:45:00,
2013-01-07 08:50:00,31.1,25.1,29.93,North,0,0.0,0.0,78,0.00,,,0.00,WUHU21623XXSP,2013-01-07 14:50:00,
2013-01-07 08:55:00,31.8,25.8,29.94,North,0,0.0,0.0,78,0.00,,,0.00,WUHU21623XXSP,2013-01-07 14:55:00,
2013-01-07 09:00:00,32.5,26.1,29.94,North,0,0.0,0.0,77,0.00,,,0.00,WUHU21623XXSP,2013-01-07 15:00:00,
2013-01-07 09:05:00,33.1,26.3,29.94,North,0,0.0,0.0,76,0.00,,,0.00,WUHU21623XXSP,2013-01-07 15:05:00,
2013-01-07 09:10:00,34.0,26.8,29.94,North,0,0.0,0.0,75,0.00,,,0.00,WUHU21623XXSP,2013-01-07 15:10:00,
2013-01-07 09:15:00,34.5,27.3,29.94,North,0,0.0,0.0,75,0.00,,,0.00,WUHU21623XXSP,2013-01-07 15:15:00,
2013-01-07 09:20:00,35.2,27.7,29.94,North,0,0.0,0.0,74,0.00,,,0.00,WUHU21623XXSP,2013-01-07 15:20:00,
2013-01-07 09:25:00,36.1,28.3,29.93,North,0,0.0,0.0,73,0.00,,,0.00,WUHU21623XXSP,2013-01-07 15:25:00,
2013-01-07 09:30:00,36.9,28.7,29.93,North,0,0.0,0.0,72,0.00,,,0.00,WUHU21623XXSP,2013-01-07 15:30:00,
2013-01-07 09:35:00,37.2,28.7,29.93,North,0,0.0,0.0,71,0.00,,,0.00,WUHU21623XXSP,2013-01-07 15:35:00,
2013-01-07 09:40:00,37.9,28.5,29.93,North,0,0.0,0.0,69,0.00,,,0.00,WUHU21623XXSP,2013-01-07 15:40:00,
2013-01-07 09:45:00,38.3,29.0,29.93,North,0,0.0,0.0,69,0.00,,,0.00,WUHU21623XXSP,2013-01-07 15:45:00,
2013-01-07 09:50:00,38.8,28.7,29.93,North,0,0.0,0.0,67,0.00,,,0.00,WUHU21623XXSP,2013-01-07 15:50:00,
2013-01-07 09:55:00,39.6,29.4,29.93,North,0,0.0,0.0,67,0.00,,,0.00,WUHU21623XXSP,2013-01-07 15:55:00,
2013-01-07 10:00:00,39.9,29.4,29.93,North,0,0.0,0.0,66,0.00,,,0.00,WUHU21623XXSP,2013-01-07 16:00:00,
2013-01-07 10:05:00,40.6,29.8,29.93,North,0,0.0,0.0,65,0.00,,,0.00,WUHU21623XXSP,2013-01-07 16:05:00,
2013-01-07 10:10:00,40.6,29.4,29.93,North,0,0.0,0.0,64,0.00,,,0.00,WUHU21623XXSP,2013-01-07 16:10:00,
2013-01-07 10:15:00,40.8,29.6,29.93,North,0,0.0,0.0,63,0.00,,,0.00,WUHU21623XXSP,2013-01-07 16:15:00,
2013-01-07 10:20:00,41.2,29.5,29.93,North,0,0.0,0.0,63,0.00,,,0.00,WUHU21623XXSP,2013-01-07 16:20:00,
2013-01-07 10:25:00,41.7,30.0,29.93,North,0,0.0,0.0,63,0.00,,,0.00,WUHU21623XXSP,2013-01-07 16:25:00,
2013-01-07 10:30:00,42.1,30.0,29.92,North,0,0.0,0.0,62,0.00,,,0.00,WUHU21623XXSP,2013-01-07 16:30:00,
2013-01-07 10:35:00,42.4,29.9,29.92,North,0,0.0,0.0,61,0.00,,,0.00,WUHU21623XXSP,2013-01-07 16:35:00,
2013-01-07 10:40:00,42.4,29.9,29.92,North,0,0.0,0.0,61,0.00,,,0.00,WUHU21623XXSP,2013-01-07 16:40:00,
2013-01-07 10:45:00,42.6,30.1,29.91,North,0,0.0,0.0,61,0.00,,,0.00,WUHU21623XXSP,2013-01-07 16:45:00,
2013-01-07 10:50:00,42.6,29.7,29.91,North,0,0.0,0.0,60,0.00,,,0.00,WUHU21623XXSP,2013-01-07 16:50:00,
2013-01-07 10:55:00,43.2,30.0,29.90,North,0,0.0,0.0,60,0.00,,,0.00,WUHU21623XXSP,2013-01-07 16:55:00,
2013-01-07 11:00:00,43.3,30.4,29.90,North,0,0.0,0.0,60,0.00,,,0.00,WUHU21623XXSP,2013-01-07 17:00:00,
2013-01-07 11:05:00,44.2,31.3,29.90,North,0,0.0,0.0,60,0.00,,,0.00,WUHU21623XXSP,2013-01-07 17:05:00,
2013-01-07 11:10:00,44.8,30.9,29.89,North,0,0.0,0.0,58,0.00,,,0.00,WUHU21623XXSP,2013-01-07 17:10:00,
2013-01-07 11:15:00,44.8,30.9,29.89,North,0,0.0,0.0,58,0.00,,,0.00,WUHU21623XXSP,2013-01-07 17:15:00,
2013-01-07 11:20:00,44.8,30.7,29.89,North,0,0.0,0.0,58,0.00,,,0.00,WUHU21623XXSP,2013-01-07 17:20:00,
2013-01-07 11:25:00,45.0,31.1,29.88,North,0,0.0,0.0,58,0.00,,,0.00,WUHU21623XXSP,2013-01-07 17:25:00,
2013-01-07 11:30:00,45.5,31.6,29.88,North,0,0.0,0.0,58,0.00,,,0.00,WUHU21623XXSP,2013-01-07 17:30:00,
2013-01-07 11:35:00,46.2,32.2,29.88,North,0,0.0,0.0,58,0.00,,,0.00,WUHU21623XXSP,2013-01-07 17:35:00,
2013-01-07 11:40:00,46.8,31.8,29.88,North,0,0.0,0.0,56,0.00,,,0.00,WUHU21623XXSP,2013-01-07 17:40:00,
2013-01-07 11:45:00,46.9,32.0,29.88,North,0,0.0,0.0,56,0.00,,,0.00,WUHU21623XXSP,2013-01-07 17:45:00,
2013-01-07 11:50:00,46.9,32.0,29.87,North,0,0.0,0.0,56,0.00,,,0.00,WUHU21623XXSP,2013-01-07 17:50:00,
2013-01-07 11:55:00,47.5,32.0,29.87,North,0,0.0,0.0,55,0.00,,,0.00,WUHU21623XXSP,2013-01-07 17:55:00,
2013-01-07 12:00:00,47.7,32.2,29.86,North,0,0.0,0.0,55,0.00,,,0.00,WUHU21623XXSP,2013-01-07 18:00:00,
2013-01-07 12:05:00,47.5,31.6,29.86,North,0,0.0,0.0,54,0.00,,,0.00,WUHU21623XXSP,2013-01-07 18:05:00,
2013-01-07 12:10:00,47.7,31.7,29.85,North,0,0.0,0.0,54,0.00,,,0.00,WUHU21623XXSP,2013-01-07 18:10:00,
2013-01-07 12:15:00,47.8,31.9,29.85,North,0,0.0,0.0,54,0.00,,,0.00,WUHU21623XXSP,2013-01-07 18:15:00,
2013-01-07 12:20:00,48.0,32.1,29.85,North,0,0.0,0.0,54,0.00,,,0.00,WUHU21623XXSP,2013-01-07 18:20:00,
2013-01-07 12:25:00,48.0,32.1,29.85,North,0,0.0,0.0,54,0.00,,,0.00,WUHU21623XXSP,2013-01-07 18:25:00,
2013-01-07 12:30:00,48.2,32.3,29.84,North,0,0.0,0.0,54,0.00,,,0.00,WUHU21623XXSP,2013-01-07 18:30:00,
2013-01-07 12:35:00,48.4,32.4,29.84,North,0,0.0,0.0,54,0.00,,,0.00,WUHU21623XXSP,2013-01-07 18:35:00,
2013-01-07 12:40:00,48.6,32.6,29.84,North,0,0.0,0.0,54,0.00,,,0.00,WUHU21623XXSP,2013-01-07 18:40:00,
2013-01-07 12:45:00,48.7,32.3,29.83,North,0,0.0,0.0,53,0.00,,,0.00,WUHU21623XXSP,2013-01-07 18:45:00,
2013-01-07 12:50:00,48.4,31.8,29.83,North,0,0.0,0.0,51,0.00,,,0.00,WUHU21623XXSP,2013-01-07 18:50:00,
2013-01-07 12:55:00,48.0,31.1,29.84,North,0,0.0,0.0,52,0.00,,,0.00,WUHU21623XXSP,2013-01-07 18:55:00,
2013-01-07 13:00:00,48.0,31.1,29.83,North,0,0.0,0.0,52,0.00,,,0.00,WUHU21623XXSP,2013-01-07 19:00:00,
2013-01-07 13:05:00,48.0,31.1,29.83,North,0,0.0,0.0,52,0.00,,,0.00,WUHU21623XXSP,2013-01-07 19:05:00,
2013-01-07 13:10:00,48.0,30.7,29.83,North,0,0.0,0.0,51,0.00,,,0.00,WUHU21623XXSP,2013-01-07 19:10:00,
2013-01-07 13:15:00,48.0,30.7,29.83,North,0,0.0,0.0,51,0.00,,,0.00,WUHU21623XXSP,2013-01-07 19:15:00,
2013-01-07 13:20:00,48.2,30.8,29.82,North,0,0.0,0.0,51,0.00,,,0.00,WUHU21623XXSP,2013-01-07 19:20:00,
2013-01-07 13:25:00,48.4,31.0,29.82,North,0,0.0,0.0,51,0.00,,,0.00,WUHU21623XXSP,2013-01-07 19:25:00,
2013-01-07 13:30:00,48.7,31.4,29.81,North,0,0.0,0.0,51,0.00,,,0.00,WUHU21623XXSP,2013-01-07 19:30:00,
2013-01-07 13:35:00,48.7,30.9,29.82,North,0,0.0,0.0,50,0.00,,,0.00,WUHU21623XXSP,2013-01-07 19:35:00,
2013-01-07 13:40:00,48.7,30.9,29.81,North,0,0.0,0.0,50,0.00,,,0.00,WUHU21623XXSP,2013-01-07 19:40:00,
2013-01-07 13:45:00,48.7,30.9,29.81,North,0,0.0,0.0,50,0.00,,,0.00,WUHU21623XXSP,2013-01-07 19:45:00,
2013-01-07 13:50:00,48.9,31.6,29.81,North,0,0.0,0.0,51,0.00,,,0.00,WUHU21623XXSP,2013-01-07 19:50:00,
2013-01-07 13:55:00,49.3,31.9,29.82,North,0,0.0,0.0,51,0.00,,,0.00,WUHU21623XXSP,2013-01-07 19:55:00,
2013-01-07 14:00:00,49.3,31.5,29.81,North,0,0.0,0.0,50,0.00,,,0.00,WUHU21623XXSP,2013-01-07 20:00:00,
2013-01-07 14:05:00,49.6,31.8,29.82,North,0,0.0,0.0,50,0.00,,,0.00,WUHU21623XXSP,2013-01-07 20:05:00,
2013-01-07 14:10:00,49.6,31.8,29.81,North,0,0.0,0.0,50,0.00,,,0.00,WUHU21623XXSP,2013-01-07 20:10:00,
2013-01-07 14:15:00,49.8,31.4,29.81,North,0,0.0,0.0,49,0.00,,,0.00,WUHU21623XXSP,2013-01-07 20:15:00,
2013-01-07 14:19:00,49.8,31.4,29.80,North,0,0.0,0.0,49,0.00,,,0.00,WUHU21623XXSP,2013-01-07 20:19:00,
2013-01-07 14:24:00,49.8,31.4,29.81,North,0,0.0,0.0,49,0.00,,,0.00,WUHU21623XXSP,2013-01-07 20:24:00,
2013-01-07 14:29:00,49.8,30.9,29.81,North,0,0.0,0.0,48,0.00,,,0.00,WUHU21623XXSP,2013-01-07 20:29:00,
2013-01-07 14:34:00,49.8,30.9,29.80,North,0,0.0,0.0,48,0.00,,,0.00,WUHU21623XXSP,2013-01-07 20:34:00,
2013-01-07 14:39:00,49.8,30.9,29.80,North,0,0.0,0.0,48,0.00,,,0.00,WUHU21623XXSP,2013-01-07 20:39:00,
2013-01-07 14:44:00,49.8,30.9,29.81,North,0,0.0,0.0,49,0.00,,,0.00,WUHU21623XXSP,2013-01-07 20:44:00,
2013-01-07 14:49:00,49.8,31.1,29.81,North,0,0.0,0.0,48,0.00,,,0.00,WUHU21623XXSP,2013-01-07 20:49:00,
2013-01-07 14:54:00,49.8,31.4,29.81,North,0,0.0,0.0,49,0.00,,,0.00,WUHU21623XXSP,2013-01-07 20:54:00,
2013-01-07 14:59:00,49.8,31.4,29.80,North,0,0.0,0.0,49,0.00,,,0.00,WUHU21623XXSP,2013-01-07 20:59:00,
2013-01-07 15:04:00,49.8,30.9,29.80,North,0,0.0,0.0,48,0.00,,,0.00,WUHU21623XXSP,2013-01-07 21:04:00,
2013-01-07 15:09:00,49.6,30.7,29.81,North,0,0.0,0.0,48,0.00,,,0.00,WUHU21623XXSP,2013-01-07 21:09:00,
2013-01-07 15:14:00,49.3,30.3,29.81,North,0,0.0,0.0,48,0.00,,,0.00,WUHU21623XXSP,2013-01-07 21:14:00,
2013-01-07 15:19:00,49.3,30.3,29.81,North,0,0.0,0.0,48,0.00,,,0.00,WUHU21623XXSP,2013-01-07 21:19:00,
2013-01-07 15:24:00,49.1,30.2,29.81,North,0,0.0,0.0,48,0.00,,,0.00,WUHU21623XXSP,2013-01-07 21:24:00,
2013-01-07 15:29:00,49.1,30.7,29.81,North,0,0.0,0.0,49,0.00,,,0.00,WUHU21623XXSP,2013-01-07 21:29:00,
2013-01-07 15:34:00,48.9,30.5,29.81,North,0,0.0,0.0,49,0.00,,,0.00,WUHU21623XXSP,2013-01-07 21:34:00,
2013-01-07 15:39:00,48.9,30.5,29.81,North,0,0.0,0.0,49,0.00,,,0.00,WUHU21623XXSP,2013-01-07 21:39:00,
2013-01-07 15:44:00,48.7,30.4,29.81,North,0,0.0,0.0,49,0.00,,,0.00,WUHU21623XXSP,2013-01-07 21:44:00,
2013-01-07 15:49:00,48.6,30.2,29.81,North,0,0.0,0.0,49,0.00,,,0.00,WUHU21623XXSP,2013-01-07 21:49:00,
2013-01-07 15:54:00,48.4,30.0,29.80,North,0,0.0,0.0,49,0.00,,,0.00,WUHU21623XXSP,2013-01-07 21:54:00,
2013-01-07 15:59:00,48.0,30.0,29.80,North,0,0.0,0.0,49,0.00,,,0.00,WUHU21623XXSP,2013-01-07 21:59:00,
2013-01-07 16:04:00,47.8,29.5,29.80,North,0,0.0,0.0,49,0.00,,,0.00,WUHU21623XXSP,2013-01-07 22:04:00,
2013-01-07 16:09:00,47.5,29.2,29.79,North,0,0.0,0.0,49,0.00,,,0.00,WUHU21623XXSP,2013-01-07 22:09:00,
2013-01-07 16:14:00,47.1,29.4,29.79,North,0,0.0,0.0,50,0.00,,,0.00,WUHU21623XXSP,2013-01-07 22:14:00,
2013-01-07 16:19:00,46.8,29.2,29.79,North,0,0.0,0.0,50,0.00,,,0.00,WUHU21623XXSP,2013-01-07 22:19:00,
2013-01-07 16:24:00,46.6,28.9,29.79,North,0,0.0,0.0,50,0.00,,,0.00,WUHU21623XXSP,2013-01-07 22:24:00,
2013-01-07 16:29:00,46.2,29.0,29.79,North,0,0.0,0.0,51,0.00,,,0.00,WUHU21623XXSP,2013-01-07 22:29:00,
2013-01-07 16:34:00,45.7,28.6,29.79,North,0,0.0,0.0,51,0.00,,,0.00,WUHU21623XXSP,2013-01-07 22:34:00,
2013-01-07 16:39:00,45.3,28.2,29.79,North,0,0.0,0.0,51,0.00,,,0.00,WUHU21623XXSP,2013-01-07 22:39:00,
2013-01-07 16:44:00,45.0,28.4,29.79,North,0,0.0,0.0,52,0.00,,,0.00,WUHU21623XXSP,2013-01-07 22:44:00,
2013-01-07 16:49:00,44.4,28.0,29.78,North,0,0.0,0.0,52,0.00,,,0.00,WUHU21623XXSP,2013-01-07 22:49:00,
2013-01-07 16:54:00,43.9,27.8,29.79,North,0,0.0,0.0,53,0.00,,,0.00,WUHU21623XXSP,2013-01-07 22:54:00,
2013-01-07 16:59:00,43.5,27.5,29.79,North,0,0.0,0.0,53,0.00,,,0.00,WUHU21623XXSP,2013-01-07 22:59:00,
2013-01-07 17:04:00,42.6,26.6,29.79,North,0,0.0,0.0,53,0.00,,,0.00,WUHU21623XXSP,2013-01-07 23:04:00,
2013-01-07 17:09:00,42.1,26.5,29.79,North,0,0.0,0.0,54,0.00,,,0.00,WUHU21623XXSP,2013-01-07 23:09:00,
2013-01-07 17:14:00,41.5,26.5,29.78,North,0,0.0,0.0,55,0.00,,,0.00,WUHU21623XXSP,2013-01-07 23:14:00,
2013-01-07 17:19:00,40.8,26.2,29.78,North,0,0.0,0.0,56,0.00,,,0.00,WUHU21623XXSP,2013-01-07 23:19:00,
2013-01-07 17:24:00,40.1,25.9,29.78,North,0,0.0,0.0,55,0.00,,,0.00,WUHU21623XXSP,2013-01-07 23:24:00,
2013-01-07 17:29:00,39.7,25.2,29.78,North,0,0.0,0.0,56,0.00,,,0.00,WUHU21623XXSP,2013-01-07 23:29:00,
2013-01-07 17:34:00,39.0,25.0,29.79,North,0,0.0,0.0,57,0.00,,,0.00,WUHU21623XXSP,2013-01-07 23:34:00,
2013-01-07 17:39:00,38.8,24.8,29.78,North,0,0.0,0.0,57,0.00,,,0.00,WUHU21623XXSP,2013-01-07 23:39:00,
2013-01-07 17:44:00,38.3,25.2,29.79,North,0,0.0,0.0,59,0.00,,,0.00,WUHU21623XXSP,2013-01-07 23:44:00,
2013-01-07 17:49:00,37.6,24.5,29.78,North,0,0.0,0.0,59,0.00,,,0.00,WUHU21623XXSP,2013-01-07 23:49:00,
2013-01-07 17:54:00,37.2,24.2,29.78,North,0,0.0,0.0,59,0.00,,,0.00,WUHU21623XXSP,2013-01-07 23:54:00,
2013-01-07 17:59:00,37.2,24.2,29.79,North,0,0.0,0.0,60,0.00,,,0.00,WUHU21623XXSP,2013-01-07 23:59:00,
2013-01-07 18:04:00,36.7,24.2,29.79,North,0,0.0,0.0,60,0.00,,,0.00,WUHU21623XXSP,2013-01-08 00:04:00,
2013-01-07 18:09:00,36.3,24.2,29.80,North,0,0.0,0.0,61,0.00,,,0.00,WUHU21623XXSP,2013-01-08 00:09:00,
2013-01-07 18:14:00,35.8,24.1,29.79,North,0,0.0,0.0,62,0.00,,,0.00,WUHU21623XXSP,2013-01-08 00:14:00,
2013-01-07 18:19:00,35.4,23.7,29.79,North,0,0.0,0.0,62,0.00,,,0.00,WUHU21623XXSP,2013-01-08 00:19:00,
2013-01-07 18:24:00,35.2,23.5,29.79,North,0,0.0,0.0,62,0.00,,,0.00,WUHU21623XXSP,2013-01-08 00:24:00,
2013-01-07 18:29:00,34.9,23.5,29.79,North,0,0.0,0.0,63,0.00,,,0.00,WUHU21623XXSP,2013-01-08 00:29:00,
2013-01-07 18:34:00,34.3,23.0,29.79,North,0,0.0,0.0,63,0.00,,,0.00,WUHU21623XXSP,2013-01-08 00:34:00,
2013-01-07 18:39:00,34.3,23.4,29.78,North,0,0.0,0.0,64,0.00,,,0.00,WUHU21623XXSP,2013-01-08 00:39:00,
2013-01-07 18:44:00,34.2,23.2,29.78,North,0,0.0,0.0,64,0.00,,,0.00,WUHU21623XXSP,2013-01-08 00:44:00,
2013-01-07 18:49:00,33.6,23.0,29.78,North,0,0.0,0.0,65,0.00,,,0.00,WUHU21623XXSP,2013-01-08 00:49:00,
2013-01-07 18:54:00,33.6,23.0,29.78,North,0,0.0,0.0,65,0.00,,,0.00,WUHU21623XXSP,2013-01-08 00:54:00,
2013-01-07 18:59:00,33.4,22.9,29.78,North,0,0.0,0.0,65,0.00,,,0.00,WUHU21623XXSP,2013-01-08 00:59:00,
2013-01-07 19:04:00,33.1,22.9,29.78,North,0,0.0,0.0,66,0.00,,,0.00,WUHU21623XXSP,2013-01-08 01:04:00,
2013-01-07 19:09:00,32.9,22.7,29.78,North,0,0.0,0.0,66,0.00,,,0.00,WUHU21623XXSP,2013-01-08 01:09:00,
2013-01-07 19:14:00,32.7,22.6,29.78,North,0,0.0,0.0,66,0.00,,,0.00,WUHU21623XXSP,2013-01-08 01:14:00,
2013-01-07 19:19:00,32.7,22.6,29.78,North,0,0.0,0.0,66,0.00,,,0.00,WUHU21623XXSP,2013-01-08 01:19:00,
2013-01-07 19:24:00,32.4,22.6,29.78,North,0,0.0,0.0,67,0.00,,,0.00,WUHU21623XXSP,2013-01-08 01:24:00,
2013-01-07 19:29:00,32.2,22.4,29.77,North,0,0.0,0.0,67,0.00,,,0.00,WUHU21623XXSP,2013-01-08 01:29:00,
2013-01-07 19:34:00,32.2,22.4,29.77,North,0,0.0,0.0,67,0.00,,,0.00,WUHU21623XXSP,2013-01-08 01:34:00,
2013-01-07 19:39:00,31.8,22.1,29.77,North,0,0.0,0.0,67,0.00,,,0.00,WUHU21623XXSP,2013-01-08 01:39:00,
2013-01-07 19:44:00,31.6,22.3,29.77,North,0,0.0,0.0,68,0.00,,,0.00,WUHU21623XXSP,2013-01-08 01:44:00,
2013-01-07 19:49:00,31.5,22.1,29.78,North,0,0.0,0.0,68,0.00,,,0.00,WUHU21623XXSP,2013-01-08 01:49:00,
2013-01-07 19:54:00,31.3,21.9,29.77,North,0,0.0,0.0,68,0.00,,,0.00,WUHU21623XXSP,2013-01-08 01:54:00,
2013-01-07 19:59:00,31.1,22.1,29.78,North,0,0.0,0.0,69,0.00,,,0.00,WUHU21623XXSP,2013-01-08 01:59:00,
2013-01-07 20:04:00,30.9,21.9,29.77,North,0,0.0,0.0,69,0.00,,,0.00,WUHU21623XXSP,2013-01-08 02:04:00,
2013-01-07 20:09:00,30.9,21.9,29.78,North,0,0.0,0.0,69,0.00,,,0.00,WUHU21623XXSP,2013-01-08 02:09:00,
2013-01-07 20:14:00,30.9,21.9,29.78,North,0,0.0,0.0,69,0.00,,,0.00,WUHU21623XXSP,2013-01-08 02:14:00,
2013-01-07 20:19:00,30.6,21.9,29.78,North,0,0.0,0.0,70,0.00,,,0.00,WUHU21623XXSP,2013-01-08 02:19:00,
2013-01-07 20:24:00,30.6,21.9,29.78,North,0,0.0,0.0,70,0.00,,,0.00,WUHU21623XXSP,2013-01-08 02:24:00,
2013-01-07 20:29:00,30.4,21.7,29.78,North,0,0.0,0.0,70,0.00,,,0.00,WUHU21623XXSP,2013-01-08 02:29:00,
2013-01-07 20:34:00,30.2,21.6,29.78,North,0,0.0,0.0,70,0.00,,,0.00,WUHU21623XXSP,2013-01-08 02:34:00,
2013-01-07 20:39:00,30.0,21.4,29.77,North,0,0.0,0.0,70,0.00,,,0.00,WUHU21623XXSP,2013-01-08 02:39:00,
2013-01-07 20:44:00,29.8,21.4,29.77,North,0,0.0,0.0,70,0.00,,,0.00,WUHU21623XXSP,2013-01-08 02:44:00,
2013-01-07 20:49:00,29.8,21.5,29.77,North,0,0.0,0.0,71,0.00,,,0.00,WUHU21623XXSP,2013-01-08 02:49:00,
2013-01-07 20:54:00,29.7,21.1,29.77,North,0,0.0,0.0,70,0.00,,,0.00,WUHU21623XXSP,2013-01-08 02:54:00,
2013-01-07 20:59:00,29.5,21.2,29.77,North,0,0.0,0.0,71,0.00,,,0.00,WUHU21623XXSP,2013-01-08 02:59:00,
2013-01-07 21:04:00,29.5,21.2,29.77,North,0,0.0,0.0,71,0.00,,,0.00,WUHU21623XXSP,2013-01-08 03:04:00,
2013-01-07 21:09:00,29.3,21.1,29.76,North,0,0.0,0.0,71,0.00,,,0.00,WUHU21623XXSP,2013-01-08 03:09:00,
2013-01-07 21:14:00,29.1,21.2,29.77,North,0,0.0,0.0,72,0.00,,,0.00,WUHU21623XXSP,2013-01-08 03:14:00,
2013-01-07 21:19:00,29.1,21.2,29.77,North,0,0.0,0.0,72,0.00,,,0.00,WUHU21623XXSP,2013-01-08 03:19:00,
2013-01-07 21:24:00,28.9,21.0,29.77,North,0,0.0,0.0,72,0.00,,,0.00,WUHU21623XXSP,2013-01-08 03:24:00,
2013-01-07 21:29:00,28.8,20.9,29.77,North,0,0.0,0.0,72,0.00,,,0.00,WUHU21623XXSP,2013-01-08 03:29:00,
2013-01-07 21:34:00,28.6,20.7,29.77,North,0,0.0,0.0,72,0.00,,,0.00,WUHU21623XXSP,2013-01-08 03:34:00,
2013-01-07 21:39:00,28.6,20.7,29.77,North,0,0.0,0.0,72,0.00,,,0.00,WUHU21623XXSP,2013-01-08 03:39:00,
2013-01-07 21:44:00,28.2,20.7,29.77,North,0,0.0,0.0,73,0.00,,,0.00,WUHU21623XXSP,2013-01-08 03:44:00,
2013-01-07 21:49:00,28.2,20.7,29.77,North,0,0.0,0.0,73,0.00,,,0.00,WUHU21623XXSP,2013-01-08 03:49:00,
2013-01-07 21:54:00,28.2,20.7,29.77,North,0,0.0,0.0,73,0.00,,,0.00,WUHU21623XXSP,2013-01-08 03:54:00,
2013-01-07 21:59:00,28.2,20.7,29.77,North,0,0.0,0.0,73,0.00,,,0.00,WUHU21623XXSP,2013-01-08 03:59:00,
2013-01-07 22:04:00,28.0,20.5,29.76,North,0,0.0,0.0,73,0.00,,,0.00,WUHU21623XXSP,2013-01-08 04:04:00,
2013-01-07 22:09:00,28.0,20.5,29.77,North,0,0.0,0.0,73,0.00,,,0.00,WUHU21623XXSP,2013-01-08 04:09:00,
2013-01-07 22:14:00,27.7,20.5,29.76,North,0,0.0,0.0,73,0.00,,,0.00,WUHU21623XXSP,2013-01-08 04:14:00,
2013-01-07 22:19:00,27.7,20.1,29.76,North,0,0.0,0.0,73,0.00,,,0.00,WUHU21623XXSP,2013-01-08 04:19:00,
2013-01-07 22:24:00,27.7,20.1,29.76,North,0,0.0,0.0,73,0.00,,,0.00,WUHU21623XXSP,2013-01-08 04:24:00,
2013-01-07 22:29:00,27.5,20.3,29.76,North,0,0.0,0.0,74,0.00,,,0.00,WUHU21623XXSP,2013-01-08 04:29:00,
2013-01-07 22:34:00,27.3,20.3,29.76,North,0,0.0,0.0,74,0.00,,,0.00,WUHU21623XXSP,2013-01-08 04:34:00,
2013-01-07 22:39:00,27.3,20.1,29.76,North,0,0.0,0.0,74,0.00,,,0.00,WUHU21623XXSP,2013-01-08 04:39:00,
2013-01-07 22:44:00,27.1,19.9,29.75,North,0,0.0,0.0,74,0.00,,,0.00,WUHU21623XXSP,2013-01-08 04:44:00,
2013-01-07 22:49:00,27.1,19.9,29.75,North,0,0.0,0.0,74,0.00,,,0.00,WUHU21623XXSP,2013-01-08 04:49:00,
2013-01-07 22:54:00,27.1,19.9,29.76,North,0,0.0,0.0,74,0.00,,,0.00,WUHU21623XXSP,2013-01-08 04:54:00,
2013-01-07 22:59:00,27.0,20.0,29.76,North,0,0.0,0.0,75,0.00,,,0.00,WUHU21623XXSP,2013-01-08 04:59:00,
2013-01-07 23:00:00,27.0,20.0,29.76,North,0,0.0,0.0,75,0.00,,,0.00,WUHU21623XXSP,2013-01-08 05:00:00,
2013-01-07 23:01:00,27.0,20.0,29.76,North,0,0.0,0.0,75,0.00,,,0.00,WUHU21623XXSP,2013-01-08 05:01:00,
2013-01-07 23:06:00,27.0,20.0,29.76,North,0,0.0,0.0,75,0.00,,,0.00,WUHU21623XXSP,2013-01-08 05:06:00,
2013-01-07 23:11:00,26.8,19.9,29.76,North,0,0.0,0.0,75,0.00,,,0.00,WUHU21623XXSP,2013-01-08 05:11:00,
2013-01-07 23:16:00,26.8,19.9,29.76,North,0,0.0,0.0,75,0.00,,,0.00,WUHU21623XXSP,2013-01-08 05:16:00,
2013-01-07 23:21:00,26.6,19.7,29.76,North,0,0.0,0.0,75,0.00,,,0.00,WUHU21623XXSP,2013-01-08 05:21:00,
2013-01-07 23:26:00,26.4,19.5,29.76,North,0,0.0,0.0,75,0.00,,,0.00,WUHU21623XXSP,2013-01-08 05:26:00,
2013-01-07 23:31:00,26.4,19.8,29.76,North,0,0.0,0.0,76,0.00,,,0.00,WUHU21623XXSP,2013-01-08 05:31:00,
2013-01-07 23:36:00,26.4,19.8,29.76,North,0,0.0,0.0,76,0.00,,,0.00,WUHU21623XXSP,2013-01-08 05:36:00,
2013-01-07 23:41:00,26.2,19.6,29.76,North,0,0.0,0.0,76,0.00,,,0.00,WUHU21623XXSP,2013-01-08 05:41:00,
2013-01-07 23:46:00,26.2,19.6,29.76,North,0,0.0,0.0,76,0.00,,,0.00,WUHU21623XXSP,2013-01-08 05:46:00,
2013-01-07 23:51:00,26.2,19.6,29.76,North,0,0.0,0.0,76,0.00,,,0.00,WUHU21623XXSP,2013-01-08 05:51:00,
2013-01-07 23:56:00,26.2,19.6,29.76,North,0,0.0,0.0,76,0.00,,,0.00,WUHU21623XXSP,2013-01-08 05:56:00,